Impacts METAR Board
IDs:

KMSP - Minneapolis-St Paul, MN, US

Updated at: 0500 UTC 10 Dec 2018
Potential Impact None Slight Moderate High
Time 09/17Z 09/18Z 09/19Z 09/20Z 09/21Z 09/22Z 09/23Z 10/00Z 10/01Z 10/02Z 10/03Z 10/04Z 10/05Z
Temp24 26 28 28 28 27 26 25 23 22 20 19 18
Dewpt18 18 18 19 19 18 17 17 17 17 16 15 15
Altim30.35 30.33 30.31 30.29 30.29 30.30 30.31 30.31 30.30 30.30 30.27 30.27 30.27
VIS9 9 9 9 9 8 8 8 8 7 8 6 5
CIG-- -- -- -- -- -- -- -- -- -- -- -- --
CoverCLRCLRCLRCLRCLRCLRCLRCLRCLRCLRCLRCLRCLR
FltCatVFRVFRVFRVFRVFRVFRVFRVFRVFRVFRVFRVFRMVFR
WX----------------------BRBR
WDir22019019017017017019002302402200220
WSpd3 4 3 6 7 6 5 5 4 4 5 0 3
WGst-- -- -- -- -- -- -- -- -- -- -- -- --
Raw hourly METARs
KMSP 091653Z 22003KT 9SM CLR M04/M08 A3035 RMK AO2 SLP291 T10441078 $
KMSP 091753Z 19004KT 9SM CLR M03/M08 A3033 RMK AO2 SLP285 4/004 I6000 T10331078 11033 21100 58002 $
KMSP 091853Z 19003KT 9SM CLR M02/M08 A3031 RMK AO2 SLP279 T10221078 $
KMSP 091953Z 17006KT 9SM CLR M02/M07 A3029 RMK AO2 SLP271 T10221072 $
KMSP 092053Z 17007KT 9SM CLR M02/M07 A3029 RMK AO2 SLP270 T10221072 56015 $
KMSP 092153Z 17006KT 8SM CLR M03/M08 A3030 RMK AO2 SLP275 T10281078 $
KMSP 092253Z 19005KT 8SM CLR M03/M08 A3031 RMK AO2 SLP280 T10331083 $
KMSP 092353Z VRB05KT 8SM CLR M04/M08 A3031 RMK AO2 SLP278 4/004 T10391083 11017 21044 50008 $
KMSP 100053Z 23004KT 8SM CLR M05/M08 A3030 RMK AO2 SLP275 T10501083 $
KMSP 100153Z 24004KT 7SM CLR M06/M08 A3030 RMK AO2 SLP275 T10561083 $
KMSP 100253Z 22005KT 8SM CLR M07/M09 A3027 RMK AO2 SLP266 T10671089 58013 $
KMSP 100353Z 00000KT 6SM BR CLR M07/M09 A3027 RMK AO2 SLP267 T10721094 $
KMSP 100453Z 22003KT 5SM BR CLR M08/M09 A3027 RMK AO2 SLP265 I1000 T10781094 $



Page loaded:  05:10 UTC  |   09:10 PM Pacific  |   10:10 PM Mountain  |   11:10 PM Central  |   12:10 AM Eastern

 

ADVISORIES

FORECASTS

FORECASTS

OBSERVATIONS

USER TOOLS

ABOUT US